Time;durP1;ratioP1;P1;durP2;ratioP2;P2;SDS_P1;SDS_P2;PMS_P1;PMS_P2;Temp;Humidity;BMP_temperature;BMP_pressure;BME280_temperature;BME280_humidity;BME280_pressure;Samples;Min_cycle;Max_cycle;Signal;HPM_P1;HPM_P2
2022/01/06 00:02:19;;;;;;;12.13;8.88;;;;;;;15.05;73.97;98059.05;1811217;78;21036;-60
2022/01/06 00:04:45;;;;;;;12.03;8.55;;;;;;;15.05;73.98;98057.72;1825098;78;21533;-60
2022/01/06 00:07:11;;;;;;;10.00;7.90;;;;;;;15.04;74.05;98062.77;1816331;78;21025;-59
2022/01/06 00:09:38;;;;;;;11.35;7.85;;;;;;;15.12;73.86;98069.09;1835845;77;21033;-60
2022/01/06 00:12:06;;;;;;;9.70;7.90;;;;;;;15.23;73.56;98075.43;1825448;77;21119;-60
2022/01/06 00:14:52;;;;;;;9.80;7.42;;;;;;;15.22;73.61;98073.82;1815118;78;21025;-61
2022/01/06 00:17:21;;;;;;;8.50;7.17;;;;;;;15.20;73.64;98074.59;1801497;77;20993;-60
2022/01/06 00:25:01;;;;;;;8.13;6.53;;;;;;;15.18;73.75;98074.52;1808505;78;21120;-59
2022/01/06 00:27:27;;;;;;;8.53;7.00;;;;;;;15.17;73.78;98072.91;1795330;78;21016;-59
2022/01/06 00:29:54;;;;;;;8.40;6.40;;;;;;;15.24;73.71;98085.09;1815987;78;20986;-60
2022/01/06 00:32:20;;;;;;;9.08;6.87;;;;;;;15.32;73.37;98087.37;1795729;79;22037;-59
2022/01/06 00:34:46;;;;;;;9.60;7.12;;;;;;;15.31;73.32;98088.41;1795981;79;21112;-59
2022/01/06 00:37:13;;;;;;;7.28;6.10;;;;;;;15.30;73.39;98088.68;1796698;79;21738;-59
2022/01/06 00:39:40;;;;;;;8.63;6.85;;;;;;;15.30;73.47;98100.72;1814149;79;20987;-60
2022/01/06 00:42:07;;;;;;;7.83;6.05;;;;;;;15.29;73.32;98097.74;1799345;79;21522;-59
2022/01/06 00:44:34;;;;;;;6.20;5.60;;;;;;;15.28;73.39;98102.82;1783613;79;21059;-60
2022/01/06 00:47:00;;;;;;;6.83;5.80;;;;;;;15.27;73.43;98109.20;1803433;79;21002;-59
2022/01/06 00:49:26;;;;;;;8.28;6.05;;;;;;;15.26;73.62;98103.56;1811140;77;22011;-60
2022/01/06 00:51:52;;;;;;;6.85;5.40;;;;;;;15.34;73.37;98101.33;1817986;78;21053;-59
2022/01/06 00:54:19;;;;;;;8.90;5.80;;;;;;;15.43;73.06;98103.11;1813686;78;21081;-59
2022/01/06 00:56:45;;;;;;;8.18;5.62;;;;;;;15.40;72.78;98098.23;1803983;77;21088;-60
2022/01/06 00:59:11;;;;;;;8.15;5.97;;;;;;;15.39;72.76;98101.94;1793536;79;21022;-60
2022/01/06 01:01:38;;;;;;;7.37;5.40;;;;;;;15.39;72.85;98114.52;1805392;79;21124;-59
2022/01/06 01:04:05;;;;;;;6.78;5.37;;;;;;;15.37;72.85;98113.41;1806739;79;21027;-60
2022/01/06 01:06:31;;;;;;;5.20;4.67;;;;;;;15.37;72.74;98111.27;1811246;79;21039;-59
2022/01/06 01:08:58;;;;;;;7.33;5.62;;;;;;;15.36;72.45;98106.98;1793388;78;20974;-60
2022/01/06 01:11:25;;;;;;;5.87;5.12;;;;;;;15.35;72.42;98107.48;1791538;79;21084;-59
2022/01/06 01:13:56;;;;;;;6.83;4.62;;;;;;;15.34;72.46;98108.55;1807423;78;21085;-59
2022/01/06 01:16:29;;;;;;;4.95;4.47;;;;;;;15.42;72.23;98120.73;1792909;78;21522;-60
2022/01/06 01:18:55;;;;;;;7.55;5.50;;;;;;;15.49;71.77;98116.03;1792624;77;21061;-59
2022/01/06 01:21:26;;;;;;;5.65;4.78;;;;;;;15.47;71.73;98118.97;1802794;77;21077;-59
2022/01/06 01:23:50;;;;;;;5.50;4.80;;;;;;;15.46;71.63;98113.85;1802463;79;21037;-60
2022/01/06 01:26:16;;;;;;;6.20;5.50;;;;;;;15.44;71.60;98112.75;1799356;79;21493;-60
2022/01/06 01:28:45;;;;;;;7.40;5.00;;;;;;;15.43;71.58;98108.46;1805069;77;21023;-60
2022/01/06 01:31:24;;;;;;;6.75;5.47;;;;;;;15.42;71.56;98109.50;1789633;79;21022;-59
2022/01/06 01:33:42;;;;;;;6.47;4.47;;;;;;;15.42;71.67;98105.48;1813324;78;21002;-60
2022/01/06 01:36:09;;;;;;;7.20;5.58;;;;;;;15.42;71.64;98103.34;1812198;79;21037;-60
2022/01/06 01:38:37;;;;;;;4.87;4.17;;;;;;;15.39;71.73;98096.59;1710243;81;21102;-61
2022/01/06 01:41:05;;;;;;;5.95;4.92;;;;;;;15.39;71.70;98097.92;1782643;79;21625;-59
2022/01/06 01:43:33;;;;;;;6.55;4.70;;;;;;;15.52;71.20;98086.13;1798480;79;21490;-59
2022/01/06 01:46:09;;;;;;;4.58;4.17;;;;;;;15.53;71.03;98095.26;1802114;79;21038;-60
2022/01/06 01:48:31;;;;;;;5.65;4.78;;;;;;;15.51;71.11;98096.53;1783008;78;21049;-59
2022/01/06 01:50:56;;;;;;;5.97;4.75;;;;;;;15.49;71.14;98105.33;1792206;79;21129;-59
2022/01/06 01:53:23;;;;;;;5.90;4.85;;;;;;;15.47;71.15;98095.39;1784991;79;21029;-58
2022/01/06 01:55:49;;;;;;;4.75;4.28;;;;;;;15.44;71.15;98099.90;1812966;79;21034;-60
2022/01/06 01:58:15;;;;;;;5.35;4.35;;;;;;;15.44;71.22;98107.39;1785632;79;21484;-59
2022/01/06 02:00:42;;;;;;;6.12;4.53;;;;;;;15.43;71.15;98112.48;1788843;79;20974;-60
2022/01/06 02:03:08;;;;;;;6.00;4.67;;;;;;;15.42;71.16;98115.38;1789098;79;21068;-60
2022/01/06 02:05:35;;;;;;;6.22;4.70;;;;;;;15.41;71.16;98102.51;1794312;77;21018;-59
2022/01/06 02:08:02;;;;;;;4.97;4.00;;;;;;;15.40;71.26;98088.86;1805240;77;21002;-59
2022/01/06 02:10:29;;;;;;;5.58;4.40;;;;;;;15.47;70.95;98081.50;1791906;79;21678;-58
2022/01/06 02:12:57;;;;;;;4.53;4.12;;;;;;;15.54;70.61;98080.81;1809566;79;21100;-59
2022/01/06 02:15:24;;;;;;;4.95;4.45;;;;;;;15.53;70.57;98083.75;1788806;79;21092;-61
2022/01/06 02:17:50;;;;;;;6.55;4.33;;;;;;;15.51;70.50;98089.34;1797151;79;20999;-59
2022/01/06 02:20:19;;;;;;;5.30;4.47;;;;;;;15.50;70.49;98098.41;1811036;78;21050;-60
2022/01/06 02:22:45;;;;;;;4.90;4.42;;;;;;;15.48;70.44;98087.66;1800165;78;21044;-58
2022/01/06 02:25:15;;;;;;;6.40;4.35;;;;;;;15.48;70.59;98102.38;1796155;79;21002;-59
2022/01/06 02:27:44;;;;;;;5.50;4.20;;;;;;;15.46;70.58;98103.95;1790850;77;21288;-59
2022/01/06 02:30:12;;;;;;;4.83;4.33;;;;;;;15.45;70.62;98118.91;1789178;78;21014;-60
2022/01/06 02:32:38;;;;;;;5.30;4.53;;;;;;;15.43;70.57;98122.34;1795818;78;21080;-59
2022/01/06 02:35:08;;;;;;;4.47;3.70;;;;;;;15.42;70.60;98151.51;1782097;80;21068;-59
2022/01/06 02:37:34;;;;;;;4.95;4.45;;;;;;;15.41;70.73;98144.52;1765963;81;21003;-59
2022/01/06 02:40:01;;;;;;;4.55;4.08;;;;;;;15.47;70.47;98136.36;1761037;81;21862;-59
2022/01/06 02:42:29;;;;;;;4.35;3.90;;;;;;;15.55;70.02;98131.16;1747551;81;21031;-60
2022/01/06 02:44:55;;;;;;;5.12;4.10;;;;;;;15.54;69.92;98132.19;1770464;80;21015;-59
2022/01/06 02:47:23;;;;;;;5.90;4.37;;;;;;;15.51;69.95;98143.36;1763638;80;21030;-59
2022/01/06 02:49:49;;;;;;;4.25;3.65;;;;;;;15.49;69.87;98156.17;1766185;80;21604;-60
2022/01/06 02:52:15;;;;;;;4.58;4.10;;;;;;;15.48;69.90;98165.27;1777282;80;21050;-60
2022/01/06 02:54:42;;;;;;;4.45;3.47;;;;;;;15.47;70.05;98175.17;1757566;80;21006;-59
2022/01/06 02:57:09;;;;;;;4.05;3.65;;;;;;;15.46;70.03;98175.40;1763187;80;21070;-61
2022/01/06 02:59:36;;;;;;;4.20;3.80;;;;;;;15.45;69.98;98178.61;1747489;80;21045;-61
2022/01/06 03:02:03;;;;;;;4.28;3.42;;;;;;;15.43;70.05;98183.39;1759850;80;22270;-60
2022/01/06 03:04:29;;;;;;;4.17;3.45;;;;;;;15.41;70.07;98181.45;1751060;80;21165;-59
2022/01/06 03:06:56;;;;;;;3.85;3.27;;;;;;;15.41;70.02;98186.80;1759614;80;21119;-60
2022/01/06 03:09:35;;;;;;;4.25;3.67;;;;;;;15.39;70.03;98192.11;1763643;80;21586;-60
2022/01/06 03:11:54;;;;;;;4.30;3.60;;;;;;;15.45;69.86;98186.63;1746138;80;21541;-60
2022/01/06 03:14:21;;;;;;;4.22;3.50;;;;;;;15.53;69.53;98183.58;1760986;80;21002;-60
2022/01/06 03:16:47;;;;;;;3.62;3.33;;;;;;;15.53;69.44;98186.78;1761844;80;21099;-59
2022/01/06 03:19:14;;;;;;;3.40;3.02;;;;;;;15.50;69.43;98183.23;1764227;80;21489;-59
2022/01/06 03:21:40;;;;;;;4.05;3.45;;;;;;;15.49;69.46;98189.63;1756814;80;21077;-61
2022/01/06 03:24:06;;;;;;;3.87;3.58;;;;;;;15.47;69.39;98187.71;1768524;79;21482;-59
2022/01/06 03:26:34;;;;;;;4.28;3.35;;;;;;;15.46;69.42;98191.45;1788025;79;21072;-60
2022/01/06 03:29:00;;;;;;;4.78;3.50;;;;;;;15.46;69.42;98194.13;1775005;80;21030;-59
2022/01/06 03:31:26;;;;;;;3.37;3.08;;;;;;;15.44;69.41;98189.01;1750060;80;21021;-60
2022/01/06 03:33:53;;;;;;;4.60;3.55;;;;;;;15.43;69.39;98190.08;1764627;79;21050;-60
2022/01/06 03:36:19;;;;;;;4.12;3.27;;;;;;;15.42;69.45;98183.09;1759571;81;21042;-60
2022/01/06 03:38:45;;;;;;;3.50;3.10;;;;;;;15.41;69.32;98180.64;1738998;81;21475;-60
2022/01/06 03:41:12;;;;;;;3.22;2.95;;;;;;;15.40;69.32;98183.84;1737468;79;21145;-60
2022/01/06 03:43:38;;;;;;;4.05;3.15;;;;;;;15.39;69.29;98179.53;1751228;81;21546;-59
2022/01/06 03:46:04;;;;;;;3.85;3.15;;;;;;;15.38;69.37;98185.95;1763188;81;21034;-61
2022/01/06 03:48:31;;;;;;;2.95;2.65;;;;;;;15.45;69.19;98195.16;1738099;79;21010;-61
2022/01/06 03:50:58;;;;;;;3.30;3.00;;;;;;;15.53;68.92;98195.63;1750593;81;20998;-59
2022/01/06 03:53:24;;;;;;;3.52;3.20;;;;;;;15.52;68.91;98198.00;1756915;79;21475;-60
2022/01/06 03:55:50;;;;;;;2.95;2.60;;;;;;;15.51;68.92;98195.05;1745087;79;21053;-59
2022/01/06 03:58:17;;;;;;;3.67;3.22;;;;;;;15.49;68.94;98194.47;1749166;79;20998;-60
2022/01/06 04:00:43;;;;;;;3.10;2.80;;;;;;;15.48;68.97;98192.03;1747153;79;21034;-59
2022/01/06 04:03:09;;;;;;;3.60;3.02;;;;;;;15.47;68.90;98197.91;1741478;81;21027;-59
2022/01/06 04:05:36;;;;;;;4.17;3.02;;;;;;;15.46;68.82;98204.30;1744560;81;21155;-59
2022/01/06 04:08:04;;;;;;;3.10;2.80;;;;;;;15.46;68.90;98199.48;1746166;79;21061;-60
2022/01/06 04:10:31;;;;;;;3.52;3.12;;;;;;;15.44;68.86;98202.39;1747002;81;21036;-59
2022/01/06 04:12:58;;;;;;;3.12;2.75;;;;;;;15.43;68.85;98200.78;1741686;79;21522;-59
2022/01/06 04:15:26;;;;;;;3.35;3.05;;;;;;;15.42;68.87;98211.19;1741438;79;21058;-60
2022/01/06 04:17:53;;;;;;;3.37;3.08;;;;;;;15.40;68.98;98201.24;1741918;81;21164;-60
2022/01/06 04:20:19;;;;;;;3.40;2.70;;;;;;;15.40;69.04;98211.14;1735096;81;21557;-60
2022/01/06 04:22:46;;;;;;;3.00;2.70;;;;;;;15.39;69.04;98214.32;1753319;81;21057;-60
2022/01/06 04:25:12;;;;;;;4.08;3.08;;;;;;;15.39;69.06;98225.55;1750961;81;21106;-59
2022/01/06 04:27:39;;;;;;;3.58;3.27;;;;;;;15.44;68.94;98234.50;1738691;81;21112;-59
2022/01/06 04:30:06;;;;;;;3.00;2.70;;;;;;;15.52;68.59;98236.80;1738974;81;21114;-59
2022/01/06 04:32:34;;;;;;;3.12;2.85;;;;;;;15.52;68.81;98238.67;1768630;79;21508;-59
2022/01/06 04:35:01;;;;;;;3.75;3.33;;;;;;;15.50;68.74;98234.89;1775435;79;21064;-59
2022/01/06 04:37:28;;;;;;;3.25;2.95;;;;;;;15.49;68.83;98229.27;1743731;81;21006;-60
2022/01/06 04:39:55;;;;;;;3.60;3.30;;;;;;;15.48;68.88;98234.84;1734723;81;21609;-59
2022/01/06 04:42:21;;;;;;;3.65;3.15;;;;;;;15.47;68.78;98230.03;1802152;78;21045;-59
2022/01/06 04:44:48;;;;;;;3.70;3.25;;;;;;;15.46;68.77;98236.41;1806178;78;20978;-60
2022/01/06 04:47:14;;;;;;;3.60;3.20;;;;;;;15.45;68.80;98237.48;1816739;77;21162;-59
2022/01/06 04:49:41;;;;;;;3.50;3.02;;;;;;;15.45;68.72;98280.80;1800391;78;21021;-62
2022/01/06 04:52:08;;;;;;;4.20;2.50;;;;;;;15.44;68.96;98275.17;1805262;77;21049;-61
2022/01/06 04:54:36;;;;;;;3.35;2.98;;;;;;;15.44;68.86;98279.19;1814381;78;21017;-61
2022/01/06 04:57:03;;;;;;;3.72;2.90;;;;;;;15.43;69.06;98273.53;1796272;78;20986;-62
2022/01/06 04:59:29;;;;;;;3.22;2.80;;;;;;;15.40;69.24;98272.15;1819103;78;21061;-62
2022/01/06 05:01:57;;;;;;;3.62;3.20;;;;;;;15.37;69.57;98280.64;1821830;78;21017;-62
2022/01/06 05:04:24;;;;;;;4.20;3.17;;;;;;;15.42;69.76;98281.29;1800098;77;20990;-62
2022/01/06 05:06:51;;;;;;;3.10;2.83;;;;;;;15.45;69.50;98291.00;1805417;77;22132;-61
2022/01/06 05:09:18;;;;;;;3.10;2.80;;;;;;;15.40;69.52;98289.55;1751076;81;21061;-61
2022/01/06 05:11:44;;;;;;;3.42;3.12;;;;;;;15.35;69.48;98296.11;1812752;78;21545;-61
2022/01/06 05:14:11;;;;;;;3.00;2.80;;;;;;;15.29;69.44;98292.51;1810045;77;21048;-62
2022/01/06 05:16:38;;;;;;;3.42;3.05;;;;;;;15.24;69.41;98301.78;1821300;78;20974;-62
2022/01/06 05:19:04;;;;;;;3.55;3.25;;;;;;;15.19;69.36;98308.34;1801473;78;21188;-61
2022/01/06 05:21:32;;;;;;;3.80;3.37;;;;;;;15.13;69.32;98296.70;1794882;78;21085;-63
2022/01/06 05:23:59;;;;;;;3.98;3.60;;;;;;;15.08;69.32;98297.92;1800467;77;21286;-62
2022/01/06 05:26:26;;;;;;;3.33;3.02;;;;;;;15.01;69.27;98308.44;1806948;78;21045;-61
2022/01/06 05:28:52;;;;;;;3.72;3.40;;;;;;;14.97;69.23;98309.95;1795376;78;20990;-62
2022/01/06 05:31:18;;;;;;;3.65;3.12;;;;;;;14.90;69.20;98314.89;1799406;78;21054;-62
2022/01/06 05:33:45;;;;;;;3.50;3.20;;;;;;;14.85;69.16;98313.95;1795877;77;21557;-62
2022/01/06 05:36:11;;;;;;;3.65;3.35;;;;;;;14.80;69.17;98317.86;1795836;79;21103;-62
2022/01/06 05:38:38;;;;;;;3.67;3.25;;;;;;;14.73;69.15;98320.09;1798730;78;21494;-62
2022/01/06 05:41:04;;;;;;;3.60;3.30;;;;;;;14.68;69.14;98329.84;1798290;79;21068;-62
2022/01/06 05:43:31;;;;;;;3.17;2.87;;;;;;;14.65;69.14;98334.33;1788289;79;21557;-61
2022/01/06 05:45:58;;;;;;;3.00;2.62;;;;;;;14.72;68.80;98336.38;1784299;79;21085;-61
2022/01/06 05:48:24;;;;;;;3.35;2.80;;;;;;;14.69;68.67;98337.64;1782420;79;20970;-62
2022/01/06 05:50:51;;;;;;;3.40;2.90;;;;;;;14.64;68.65;98346.05;1792084;79;21093;-61
2022/01/06 05:53:18;;;;;;;3.77;3.47;;;;;;;14.59;68.67;98349.41;1801909;77;21065;-62
2022/01/06 05:55:45;;;;;;;3.83;3.45;;;;;;;14.55;68.64;98354.89;1786503;79;21193;-63
2022/01/06 05:58:11;;;;;;;3.40;3.10;;;;;;;14.51;68.63;98359.06;1792311;79;21014;-62
2022/01/06 06:00:38;;;;;;;3.40;3.10;;;;;;;14.46;68.65;98364.27;1798302;79;20986;-62
2022/01/06 06:03:04;;;;;;;3.60;3.30;;;;;;;14.42;68.62;98366.58;1786691;79;21013;-62
2022/01/06 06:05:31;;;;;;;3.72;3.42;;;;;;;14.39;68.59;98366.20;1782986;79;21034;-61
2022/01/06 06:07:57;;;;;;;3.58;3.27;;;;;;;14.35;68.59;98369.84;1785527;79;21116;-61
2022/01/06 06:10:24;;;;;;;3.45;3.00;;;;;;;14.31;68.56;98374.84;1797239;77;21006;-62
2022/01/06 06:12:52;;;;;;;4.03;3.35;;;;;;;14.28;68.55;98377.95;1787409;77;21005;-62
2022/01/06 06:15:20;;;;;;;3.50;3.15;;;;;;;14.25;68.55;98383.73;1793788;79;21026;-63
2022/01/06 06:17:48;;;;;;;3.33;3.02;;;;;;;14.22;68.51;98386.88;1796788;79;21073;-61
2022/01/06 06:20:15;;;;;;;3.65;3.33;;;;;;;14.19;68.50;98398.53;1782251;79;21203;-61
2022/01/06 06:22:42;;;;;;;4.17;3.77;;;;;;;14.15;68.53;98390.14;1783266;79;20998;-62
2022/01/06 06:25:08;;;;;;;4.10;3.70;;;;;;;14.11;68.49;98392.44;1803333;79;21478;-61
2022/01/06 06:27:35;;;;;;;3.77;3.40;;;;;;;14.09;68.50;98400.39;1803297;79;21100;-62
2022/01/06 06:30:02;;;;;;;3.20;2.90;;;;;;;14.05;68.46;98400.02;1787973;78;21050;-62
2022/01/06 06:32:33;;;;;;;3.70;3.30;;;;;;;14.03;68.46;98394.61;1804122;79;21131;-61
2022/01/06 06:34:57;;;;;;;3.65;3.05;;;;;;;14.00;68.48;98399.05;1797598;78;21023;-61
2022/01/06 06:37:24;;;;;;;4.50;3.12;;;;;;;13.97;68.48;98416.34;1785717;79;21631;-62
2022/01/06 06:39:50;;;;;;;3.62;3.33;;;;;;;14.03;68.22;98417.31;1811702;79;20982;-62
2022/01/06 06:42:16;;;;;;;3.85;3.45;;;;;;;14.09;67.96;98426.56;1794888;78;21057;-61
2022/01/06 06:44:44;;;;;;;3.40;3.10;;;;;;;14.05;67.95;98422.71;1805307;78;21136;-62
2022/01/06 06:47:10;;;;;;;3.42;3.12;;;;;;;14.03;67.94;98423.98;1785229;79;20986;-61
2022/01/06 06:49:38;;;;;;;4.25;3.72;;;;;;;14.00;67.90;98427.09;1783332;79;21045;-61
2022/01/06 06:52:06;;;;;;;3.27;2.98;;;;;;;13.96;67.92;98434.22;1792373;79;21596;-61
2022/01/06 06:54:32;;;;;;;3.62;3.12;;;;;;;13.94;67.87;98427.45;1789966;79;21006;-63
2022/01/06 06:56:59;;;;;;;3.77;3.40;;;;;;;13.91;67.88;98431.39;1795630;78;21042;-61
2022/01/06 06:59:25;;;;;;;4.30;3.10;;;;;;;13.89;67.89;98438.81;1807925;79;21005;-63
2022/01/06 07:01:51;;;;;;;4.05;3.52;;;;;;;13.86;67.85;98443.24;1787617;78;21505;-62
2022/01/06 07:04:17;;;;;;;3.98;3.58;;;;;;;13.83;67.87;98449.04;1795888;79;21057;-61
2022/01/06 07:06:44;;;;;;;4.08;3.60;;;;;;;13.81;67.87;98451.12;1786811;79;21038;-62
2022/01/06 07:09:11;;;;;;;3.83;3.52;;;;;;;13.79;67.85;98452.35;1782249;79;21704;-64
2022/01/06 07:11:38;;;;;;;3.62;3.20;;;;;;;13.76;67.84;98458.43;1786407;79;21030;-62
2022/01/06 07:14:04;;;;;;;3.22;2.92;;;;;;;13.75;67.83;98470.66;1786734;79;21477;-62
2022/01/06 07:16:32;;;;;;;3.37;3.08;;;;;;;13.72;67.80;98477.26;1785213;79;21021;-61
2022/01/06 07:18:59;;;;;;;4.60;4.20;;;;;;;13.69;67.84;98479.02;1797931;79;21473;-63
2022/01/06 07:21:25;;;;;;;3.80;3.15;;;;;;;13.67;67.82;98478.42;1790172;79;21359;-61
2022/01/06 07:23:52;;;;;;;3.37;3.08;;;;;;;13.66;67.82;98473.33;1788784;77;21458;-62
2022/01/06 07:26:19;;;;;;;3.30;2.92;;;;;;;13.63;67.85;98474.56;1782248;79;21053;-63
2022/01/06 07:28:45;;;;;;;4.10;3.58;;;;;;;13.60;67.83;98473.69;1782291;79;21521;-62
2022/01/06 07:31:12;;;;;;;3.90;3.50;;;;;;;13.59;67.84;98491.23;1785547;79;20986;-62
2022/01/06 07:33:39;;;;;;;3.87;3.40;;;;;;;13.55;67.82;98493.00;1797432;78;21129;-60
2022/01/06 07:36:05;;;;;;;4.08;3.50;;;;;;;13.53;67.82;98484.39;1800288;77;21604;-61
2022/01/06 07:38:33;;;;;;;3.45;3.15;;;;;;;13.52;67.83;98483.27;1819421;78;21064;-62
2022/01/06 07:41:00;;;;;;;3.40;3.10;;;;;;;13.50;67.79;98480.00;1815745;78;21001;-61
2022/01/06 07:43:26;;;;;;;3.58;3.27;;;;;;;13.47;67.80;98477.80;1803398;78;21627;-63
2022/01/06 07:45:53;;;;;;;4.28;3.52;;;;;;;13.46;67.81;98484.98;1815457;78;21056;-62
2022/01/06 07:48:29;;;;;;;2.80;2.60;;;;;;;13.46;67.81;98490.82;1818542;77;21029;-61
2022/01/06 07:50:48;;;;;;;3.30;3.00;;;;;;;13.57;67.54;98489.59;1811238;77;21092;-62
2022/01/06 07:53:15;;;;;;;3.30;3.00;;;;;;;13.60;67.39;98496.86;1816195;78;20973;-61
2022/01/06 07:55:41;;;;;;;3.20;2.90;;;;;;;13.57;67.41;98487.45;1806852;77;21069;-63
2022/01/06 07:58:07;;;;;;;3.62;2.85;;;;;;;13.56;67.41;98497.31;1804500;77;21119;-62
2022/01/06 08:00:34;;;;;;;3.70;3.25;;;;;;;13.54;67.35;98502.05;1813311;78;21018;-62
2022/01/06 08:03:00;;;;;;;2.95;2.62;;;;;;;13.53;67.31;98506.27;1824791;78;20969;-65
2022/01/06 08:05:27;;;;;;;3.47;3.17;;;;;;;13.50;67.25;98507.53;1811377;78;21056;-62
2022/01/06 08:07:54;;;;;;;3.17;2.87;;;;;;;13.49;67.22;98510.41;1803630;78;21046;-65
2022/01/06 08:10:21;;;;;;;2.95;2.75;;;;;;;13.47;67.15;98515.95;1812149;78;21123;-61
2022/01/06 08:12:48;;;;;;;3.58;2.70;;;;;;;13.45;67.12;98507.87;1821204;78;20998;-64
2022/01/06 08:15:16;;;;;;;4.00;3.22;;;;;;;13.43;67.07;98524.62;1808928;77;20994;-61
2022/01/06 08:17:43;;;;;;;2.67;2.47;;;;;;;13.42;67.06;98517.63;1805003;78;21032;-59
2022/01/06 08:20:11;;;;;;;3.58;3.00;;;;;;;13.39;67.03;98513.56;1809381;78;21037;-61
2022/01/06 08:22:37;;;;;;;3.00;2.60;;;;;;;13.39;67.00;98517.55;1749166;81;21152;-62
2022/01/06 08:25:06;;;;;;;3.02;2.72;;;;;;;13.36;66.99;98512.64;1733941;80;21524;-63
2022/01/06 08:27:33;;;;;;;3.62;3.10;;;;;;;13.35;66.98;98516.36;1771595;80;21038;-62
2022/01/06 08:29:59;;;;;;;3.35;2.98;;;;;;;13.34;66.97;98522.19;1757083;80;21136;-64
2022/01/06 08:32:25;;;;;;;2.80;2.37;;;;;;;13.33;66.97;98519.23;1764987;80;21216;-64
2022/01/06 08:34:52;;;;;;;2.52;2.33;;;;;;;13.32;66.94;98529.59;1750489;79;23348;-64
2022/01/06 08:37:18;;;;;;;3.05;2.72;;;;;;;13.32;66.93;98542.12;1760093;80;21129;-64
2022/01/06 08:39:44;;;;;;;2.98;2.67;;;;;;;13.30;66.90;98540.99;1751468;80;21089;-63
2022/01/06 08:42:13;;;;;;;3.00;2.80;;;;;;;13.30;66.89;98549.52;1758075;80;21050;-62
2022/01/06 08:44:41;;;;;;;3.42;2.62;;;;;;;13.31;66.85;98560.50;1751806;79;21065;-63
2022/01/06 08:47:09;;;;;;;3.27;2.77;;;;;;;13.31;66.83;98563.17;1758192;80;21769;-62
2022/01/06 08:49:36;;;;;;;3.67;2.62;;;;;;;13.31;66.81;98564.50;1762845;79;21026;-64
2022/01/06 08:52:04;;;;;;;3.17;2.72;;;;;;;13.31;66.80;98563.98;1747170;80;21002;-62
2022/01/06 08:54:32;;;;;;;2.72;2.52;;;;;;;13.31;66.77;98560.50;1755417;80;21050;-61
2022/01/06 08:56:58;;;;;;;3.58;2.47;;;;;;;13.32;66.80;98557.59;1761871;80;21528;-65
2022/01/06 08:59:24;;;;;;;2.87;2.60;;;;;;;13.32;66.80;98552.27;1757136;79;21139;-61
2022/01/06 09:01:51;;;;;;;3.22;2.83;;;;;;;13.33;66.79;98549.91;1745053;79;21502;-62
2022/01/06 09:04:20;;;;;;;2.72;2.35;;;;;;;13.33;66.78;98555.24;1747832;79;21089;-62
2022/01/06 09:06:50;;;;;;;3.55;3.22;;;;;;;13.34;66.76;98562.20;1756167;81;21531;-63
2022/01/06 09:09:18;;;;;;;3.30;2.80;;;;;;;13.34;66.75;98566.20;1751606;79;21019;-61
2022/01/06 09:11:45;;;;;;;4.30;3.08;;;;;;;13.34;66.70;98558.20;1738964;80;21154;-62
2022/01/06 09:14:11;;;;;;;2.77;2.58;;;;;;;13.35;66.69;98555.03;1741879;81;21015;-61
2022/01/06 09:16:38;;;;;;;4.28;2.90;;;;;;;13.35;66.70;98563.84;1741796;81;21167;-63
2022/01/06 09:19:05;;;;;;;3.00;2.80;;;;;;;13.37;66.72;98568.97;1736723;81;21074;-63
2022/01/06 09:21:31;;;;;;;2.87;2.67;;;;;;;13.39;66.71;98572.77;1735981;80;21058;-61
2022/01/06 09:23:59;;;;;;;3.08;2.77;;;;;;;13.40;66.66;98575.72;1735741;80;21101;-61
2022/01/06 09:26:26;;;;;;;3.12;2.83;;;;;;;13.41;66.64;98591.52;1741885;81;21030;-61
2022/01/06 09:28:52;;;;;;;2.80;2.50;;;;;;;13.43;66.62;98588.64;1736223;80;21041;-60
2022/01/06 09:31:19;;;;;;;3.67;2.50;;;;;;;13.44;66.59;98593.73;1752245;80;21565;-62
2022/01/06 09:33:45;;;;;;;3.55;2.92;;;;;;;13.46;66.56;98591.70;1774867;79;21083;-62
2022/01/06 09:36:11;;;;;;;3.60;2.58;;;;;;;13.48;66.54;98580.79;1760185;80;21129;-62
2022/01/06 09:38:38;;;;;;;3.25;2.95;;;;;;;13.49;66.48;98579.25;1751870;80;21044;-63
2022/01/06 09:41:05;;;;;;;3.37;3.08;;;;;;;13.50;66.42;98581.39;1757007;80;21099;-62
2022/01/06 09:43:34;;;;;;;2.77;2.58;;;;;;;13.52;66.40;98588.66;1756349;80;21080;-61
2022/01/06 09:46:06;;;;;;;3.22;2.90;;;;;;;13.52;66.36;98596.17;1764185;79;21077;-63
2022/01/06 09:48:34;;;;;;;3.45;3.15;;;;;;;13.53;66.32;98588.98;1750875;80;21165;-61
2022/01/06 09:51:00;;;;;;;3.37;2.75;;;;;;;13.52;66.26;98596.17;1799544;77;21052;-63
2022/01/06 09:53:26;;;;;;;4.15;2.92;;;;;;;13.52;66.22;98608.67;1814872;77;21053;-61
2022/01/06 09:55:53;;;;;;;3.22;2.90;;;;;;;13.52;66.18;98601.51;1811780;77;20985;-61
2022/01/06 09:58:25;;;;;;;3.37;2.65;;;;;;;13.50;66.11;98588.90;1819871;77;21002;-62
2022/01/06 10:00:52;;;;;;;3.20;2.87;;;;;;;13.52;66.09;98581.50;1813596;77;21104;-63
2022/01/06 10:03:19;;;;;;;2.72;2.52;;;;;;;13.53;66.03;98579.64;1818868;77;21156;-64
2022/01/06 10:05:49;;;;;;;3.25;2.77;;;;;;;13.54;66.02;98582.09;1814299;77;21092;-62
2022/01/06 10:08:28;;;;;;;3.10;2.80;;;;;;;13.56;65.98;98593.89;1817797;77;21053;-61
2022/01/06 10:11:13;;;;;;;3.05;2.52;;;;;;;13.58;65.96;98609.17;1807595;78;21061;-62
2022/01/06 10:13:42;;;;;;;4.10;2.85;;;;;;;13.61;65.92;98599.91;1813862;77;22415;-61
2022/01/06 10:16:19;;;;;;;3.30;2.80;;;;;;;13.64;65.90;98600.83;1819558;78;21017;-61
2022/01/06 10:19:04;;;;;;;3.15;2.62;;;;;;;13.64;65.85;98589.63;1818017;78;21022;-62
2022/01/06 10:21:37;;;;;;;4.35;2.65;;;;;;;13.66;65.80;98592.09;1819746;77;21026;-62
2022/01/06 10:24:16;;;;;;;3.52;2.85;;;;;;;13.67;65.79;98586.50;1820844;78;21660;-62
2022/01/06 10:26:58;;;;;;;3.35;2.92;;;;;;;13.67;65.74;98573.16;1815445;77;21787;-62
2022/01/06 10:29:29;;;;;;;3.12;2.42;;;;;;;13.70;65.67;98575.94;1806476;77;21005;-62
2022/01/06 10:32:13;;;;;;;2.92;2.40;;;;;;;13.69;65.65;98562.27;1801647;77;21120;-63
2022/01/06 10:34:42;;;;;;;2.52;2.33;;;;;;;13.72;65.64;98561.86;1814914;78;21529;-61
2022/01/06 10:37:25;;;;;;;2.80;2.40;;;;;;;13.78;65.64;98564.17;1811923;78;21083;-61
2022/01/06 10:40:04;;;;;;;2.75;2.52;;;;;;;13.85;65.57;98558.24;1819055;78;21758;-63
2022/01/06 10:42:33;;;;;;;3.25;2.47;;;;;;;13.93;65.36;98545.45;1820092;77;21028;-61
2022/01/06 10:45:09;;;;;;;3.08;2.47;;;;;;;14.02;65.13;98556.66;1816307;78;21029;-62
2022/01/06 10:47:42;;;;;;;3.00;2.70;;;;;;;14.10;64.90;98557.73;1803073;78;21088;-62
2022/01/06 10:50:36;;;;;;;3.35;2.50;;;;;;;14.20;64.66;98559.89;1822524;78;21021;-61
2022/01/06 10:53:10;;;;;;;2.20;2.00;;;;;;;14.30;64.45;98558.86;1821939;78;21127;-59
2022/01/06 10:55:43;;;;;;;2.60;2.40;;;;;;;14.39;64.22;98564.75;1813849;77;21032;-61
2022/01/06 10:58:24;;;;;;;2.45;2.25;;;;;;;14.47;63.98;98568.45;1812786;78;21021;-61
2022/01/06 11:01:02;;;;;;;2.87;2.25;;;;;;;14.53;63.84;98572.09;1811453;77;21017;-61
2022/01/06 11:03:36;;;;;;;2.77;2.22;;;;;;;14.60;63.68;98573.38;1816038;77;21519;-61
2022/01/06 11:06:04;;;;;;;3.22;2.50;;;;;;;14.63;63.60;98563.59;1815235;78;21805;-59
2022/01/06 11:08:35;;;;;;;2.67;2.47;;;;;;;14.66;63.62;98554.61;1815408;77;21017;-61
2022/01/06 11:13:34;;;;;;;3.42;2.37;;;;;;;14.70;63.62;98576.37;1808195;78;21455;-62
2022/01/06 11:16:00;;;;;;;2.20;2.00;;;;;;;14.70;63.67;98574.51;1810858;77;21017;-61
2022/01/06 11:18:27;;;;;;;2.77;2.30;;;;;;;14.69;63.78;98574.19;1816408;77;21084;-61
2022/01/06 11:21:09;;;;;;;3.10;2.37;;;;;;;14.69;63.80;98576.06;1818608;78;21041;-61
2022/01/06 11:23:36;;;;;;;2.85;2.37;;;;;;;14.69;63.87;98575.53;1825363;78;21017;-61
2022/01/06 11:26:18;;;;;;;2.95;2.58;;;;;;;14.67;63.83;98582.95;1811741;78;21564;-61
2022/01/06 11:28:55;;;;;;;2.60;2.40;;;;;;;14.67;63.92;98567.45;1808778;77;21028;-61
2022/01/06 11:31:24;;;;;;;2.55;2.27;;;;;;;14.66;64.13;98565.80;1809394;77;22904;-62
2022/01/06 11:33:52;;;;;;;2.50;2.20;;;;;;;14.64;64.20;98571.39;1799819;78;20990;-61
2022/01/06 11:36:30;;;;;;;3.90;2.90;;;;;;;14.62;64.26;98573.97;1796505;78;21021;-61
2022/01/06 11:38:59;;;;;;;2.72;2.52;;;;;;;14.60;64.37;98580.06;1803663;77;21226;-61
2022/01/06 11:41:38;;;;;;;2.30;2.10;;;;;;;14.59;64.43;98591.80;1794553;78;21007;-62
2022/01/06 11:44:32;;;;;;;2.52;2.27;;;;;;;14.55;64.43;98598.89;1803816;79;21061;-62
2022/01/06 11:48:09;;;;;;;2.45;2.20;;;;;;;14.55;64.50;98605.57;1840533;76;27950;-61